createdAt,value
2023-03-28T00:01:49.040Z,10.28
2023-03-28T00:04:20.648Z,16.57
2023-03-28T00:06:53.467Z,12.87
2023-03-28T00:09:23.340Z,9.73
2023-03-28T00:11:53.594Z,15.05
2023-03-28T00:14:23.391Z,10.30
2023-03-28T00:16:53.400Z,15.43
2023-03-28T00:19:23.171Z,7.10
2023-03-28T00:21:54.761Z,13.98
2023-03-28T00:24:24.242Z,9.13
2023-03-28T00:26:58.423Z,10.50
2023-03-28T00:29:30.269Z,10.03
2023-03-28T00:32:00.897Z,10.37
2023-03-28T00:34:31.232Z,11.80
2023-03-28T00:37:02.404Z,14.27
2023-03-28T00:39:32.719Z,13.77
2023-03-28T00:42:03.407Z,16.07
2023-03-28T00:44:53.803Z,14.03
2023-03-28T00:47:30.747Z,10.00
2023-03-28T00:50:06.336Z,15.03
2023-03-28T00:52:45.120Z,9.98
2023-03-28T00:55:27.061Z,13.57
2023-03-28T00:57:57.651Z,14.37
2023-03-28T01:00:30.758Z,10.13
2023-03-28T01:03:02.654Z,8.57
2023-03-28T01:05:34.959Z,10.73
2023-03-28T01:08:15.317Z,13.53
2023-03-28T01:10:45.862Z,12.37
2023-03-28T01:13:19.087Z,9.90
2023-03-28T01:15:51.523Z,8.37
2023-03-28T01:18:23.426Z,9.13
2023-03-28T01:20:58.689Z,9.10
2023-03-28T01:23:33.760Z,13.00
2023-03-28T01:26:30.045Z,11.03
2023-03-28T01:29:34.092Z,16.00
2023-03-28T01:32:35.265Z,9.23
2023-03-28T01:35:30.598Z,19.32
2023-03-28T01:38:25.937Z,9.87
2023-03-28T01:41:15.242Z,10.80
2023-03-28T01:44:01.337Z,10.20
2023-03-28T01:46:40.197Z,13.43
2023-03-28T01:49:31.872Z,11.20
2023-03-28T01:52:10.534Z,8.93
2023-03-28T01:54:52.345Z,15.83
2023-03-28T01:57:33.931Z,12.87
2023-03-28T02:00:15.717Z,10.53
2023-03-28T02:03:06.612Z,8.37
2023-03-28T02:05:40.193Z,17.53
2023-03-28T02:08:14.306Z,11.80
2023-03-28T02:10:50.535Z,12.90
2023-03-28T02:13:51.694Z,9.07
2023-03-28T02:16:42.208Z,9.80
2023-03-28T02:19:33.275Z,12.83
2023-03-28T02:22:13.620Z,12.18
2023-03-28T02:24:54.318Z,12.93
2023-03-28T02:27:26.321Z,14.23
2023-03-28T02:30:01.275Z,8.33
2023-03-28T02:32:35.805Z,10.87
2023-03-28T02:35:09.127Z,11.48
2023-03-28T02:38:02.106Z,13.37
2023-03-28T02:40:41.746Z,8.78
2023-03-28T02:43:15.445Z,8.97
2023-03-28T02:46:09.327Z,12.83
2023-03-28T02:49:00.073Z,7.80
2023-03-28T02:51:41.518Z,6.00
2023-03-28T02:54:30.999Z,16.77
2023-03-28T02:57:27.186Z,7.47
2023-03-28T03:00:04.880Z,7.07
2023-03-28T03:02:34.793Z,13.20
2023-03-28T03:05:04.923Z,9.47
2023-03-28T03:07:34.785Z,8.40
2023-03-28T03:10:08.036Z,11.57
2023-03-28T03:12:38.523Z,8.57
2023-03-28T03:15:08.992Z,12.97
2023-03-28T03:17:47.084Z,8.20
2023-03-28T03:20:17.498Z,8.40
2023-03-28T03:22:47.327Z,12.47
2023-03-28T03:25:17.358Z,11.05
2023-03-28T03:27:48.876Z,12.27
2023-03-28T03:30:20.380Z,15.32
2023-03-28T03:32:51.946Z,5.87
2023-03-28T03:35:22.041Z,8.95
2023-03-28T03:37:51.957Z,14.00
2023-03-28T03:40:21.961Z,8.12
2023-03-28T03:42:52.404Z,18.70
2023-03-28T03:45:22.657Z,8.10
2023-03-28T03:47:52.645Z,11.43
2023-03-28T03:50:22.686Z,13.10
2023-03-28T03:52:52.589Z,8.97
2023-03-28T03:55:23.801Z,10.30
2023-03-28T03:57:53.926Z,9.03
2023-03-28T04:00:23.629Z,7.62
2023-03-28T04:02:54.022Z,13.40
2023-03-28T04:05:25.951Z,14.30
2023-03-28T04:08:08.083Z,10.68
2023-03-28T04:10:39.925Z,18.25
2023-03-28T04:13:09.819Z,11.27
2023-03-28T04:15:39.525Z,8.53
2023-03-28T04:18:19.132Z,7.26
2023-03-28T04:20:54.532Z,15.80
2023-03-28T04:23:44.002Z,14.55
2023-03-28T04:26:33.069Z,7.57
2023-03-28T04:29:05.778Z,7.28
2023-03-28T04:31:39.134Z,12.80
2023-03-28T04:34:31.536Z,10.88
2023-03-28T04:37:13.242Z,10.33
2023-03-28T04:39:46.868Z,10.77
2023-03-28T04:42:30.091Z,8.67
2023-03-28T04:45:08.705Z,10.47
2023-03-28T04:47:40.225Z,11.60
2023-03-28T04:50:13.052Z,9.90
2023-03-28T04:52:43.068Z,10.10
2023-03-28T04:55:12.920Z,10.50
2023-03-28T04:57:42.768Z,15.50
2023-03-28T05:00:15.369Z,12.65
2023-03-28T05:02:57.260Z,16.43
2023-03-28T05:05:28.264Z,11.12
2023-03-28T05:07:59.693Z,9.00
2023-03-28T05:10:29.196Z,14.25
2023-03-28T05:13:00.689Z,16.17
2023-03-28T05:15:31.420Z,12.40
2023-03-28T05:18:03.328Z,14.67
2023-03-28T05:20:35.982Z,10.88
2023-03-28T05:23:07.224Z,11.97
2023-03-28T05:25:38.800Z,10.70
2023-03-28T05:28:10.945Z,11.10
2023-03-28T05:30:42.442Z,13.93
2023-03-28T05:33:12.750Z,11.95
2023-03-28T05:35:43.080Z,13.03
2023-03-28T05:38:14.361Z,9.20
2023-03-28T05:40:44.475Z,22.07
2023-03-28T05:43:14.386Z,8.05
2023-03-28T05:45:44.497Z,12.93
2023-03-28T05:48:19.168Z,14.53
2023-03-28T05:50:51.076Z,9.63
2023-03-28T05:53:21.022Z,11.23
2023-03-28T05:55:51.751Z,14.37
2023-03-28T05:58:21.718Z,13.60
2023-03-28T06:00:52.374Z,17.60
2023-03-28T06:03:22.752Z,17.25
2023-03-28T06:05:52.959Z,15.93
2023-03-28T06:08:24.655Z,15.20
2023-03-28T06:10:54.871Z,19.60
2023-03-28T06:13:26.188Z,24.30
2023-03-28T06:15:56.218Z,24.13
2023-03-28T06:18:31.146Z,20.35
2023-03-28T06:21:01.434Z,15.47
2023-03-28T06:23:31.914Z,22.97
2023-03-28T06:26:03.225Z,19.35
2023-03-28T06:28:34.855Z,21.20
2023-03-28T06:33:50.494Z,18.45
2023-03-28T06:36:22.076Z,23.22
2023-03-28T06:38:53.519Z,25.32
2023-03-28T06:41:25.201Z,19.03
2023-03-28T06:43:55.192Z,19.20
2023-03-28T06:46:43.111Z,24.73
2023-03-28T06:49:13.781Z,24.77
2023-03-28T06:52:01.665Z,24.27
2023-03-28T06:54:31.964Z,25.67
2023-03-28T06:57:01.911Z,31.33
2023-03-28T06:59:31.760Z,30.90
2023-03-28T07:02:03.429Z,23.37
2023-03-28T07:04:35.110Z,21.23
2023-03-28T07:07:05.299Z,24.63
2023-03-28T07:09:35.576Z,24.33
2023-03-28T07:12:08.828Z,21.37
2023-03-28T07:14:40.443Z,21.40
2023-03-28T07:17:10.869Z,24.57
2023-03-28T07:19:40.992Z,20.63
2023-03-28T07:22:12.347Z,20.66
2023-03-28T07:24:42.555Z,19.87
2023-03-28T07:27:16.496Z,21.47
2023-03-28T07:29:47.100Z,21.07
2023-03-28T07:32:17.285Z,17.73
2023-03-28T07:34:48.250Z,19.65
2023-03-28T07:37:22.741Z,18.57
2023-03-28T07:39:56.457Z,25.08
2023-03-28T07:42:28.270Z,20.68
2023-03-28T07:44:58.120Z,21.90
2023-03-28T07:47:30.626Z,24.97
2023-03-28T07:50:00.516Z,16.37
2023-03-28T07:52:31.901Z,22.40
2023-03-28T07:55:01.787Z,15.53
2023-03-28T07:57:32.831Z,16.73
2023-03-28T08:00:10.763Z,16.25
2023-03-28T08:02:44.961Z,11.93
2023-03-28T08:05:14.459Z,14.40
2023-03-28T08:07:46.203Z,16.57
2023-03-28T08:10:16.248Z,17.10
2023-03-28T08:12:46.741Z,15.98
2023-03-28T08:15:16.857Z,10.28
2023-03-28T08:17:47.184Z,17.37
2023-03-28T08:20:16.994Z,9.90
2023-03-28T08:23:04.881Z,13.00
2023-03-28T08:25:42.461Z,19.80
2023-03-28T08:28:13.089Z,18.30
2023-03-28T08:30:42.942Z,10.90
2023-03-28T08:33:12.959Z,14.80
2023-03-28T08:35:43.007Z,16.60
2023-03-28T08:38:14.640Z,16.10
2023-03-28T08:40:47.568Z,13.83
2023-03-28T08:43:44.609Z,13.33
2023-03-28T08:46:17.732Z,8.63
2023-03-28T08:48:49.740Z,13.50
2023-03-28T08:51:22.707Z,17.50
2023-03-28T08:54:22.671Z,17.43
2023-03-28T08:56:55.815Z,10.05
2023-03-28T08:59:34.320Z,14.90
2023-03-28T09:02:12.141Z,10.00
2023-03-28T09:04:42.288Z,10.27
2023-03-28T09:07:16.860Z,8.60
2023-03-28T09:10:04.432Z,9.57
2023-03-28T09:12:57.819Z,10.43
2023-03-28T09:15:36.322Z,9.90
2023-03-28T09:18:17.008Z,16.07
2023-03-28T09:20:55.682Z,12.33
2023-03-28T09:24:09.075Z,8.53
2023-03-28T09:26:48.835Z,8.40
2023-03-28T09:29:24.984Z,13.72
2023-03-28T09:32:01.006Z,11.07
2023-03-28T09:34:43.109Z,8.40
2023-03-28T09:37:19.006Z,10.55
2023-03-28T09:39:55.369Z,5.23
2023-03-28T09:42:29.665Z,8.90
2023-03-28T09:48:20.626Z,6.85
2023-03-28T09:50:52.411Z,7.53
2023-03-28T09:53:27.186Z,7.05
2023-03-28T09:56:04.341Z,9.27
2023-03-28T09:58:47.618Z,11.03
2023-03-28T10:04:14.990Z,5.22
2023-03-28T10:07:13.453Z,2.77
2023-03-28T10:09:50.713Z,19.23
2023-03-28T10:12:28.863Z,10.57
2023-03-28T10:14:58.990Z,5.53
2023-03-28T10:17:45.988Z,6.33
2023-03-28T10:20:22.634Z,7.28
2023-03-28T10:22:56.958Z,3.00
2023-03-28T10:25:36.070Z,2.77
2023-03-28T10:28:10.939Z,9.18
2023-03-28T10:30:42.276Z,6.67
2023-03-28T10:33:21.920Z,10.23
2023-03-28T10:36:12.714Z,5.60
2023-03-28T10:38:50.296Z,6.20
2023-03-28T10:41:29.648Z,5.80
2023-03-28T10:44:19.111Z,8.60
2023-03-28T10:46:54.479Z,8.83
2023-03-28T10:49:28.491Z,7.57
2023-03-28T10:52:00.261Z,11.83
2023-03-28T10:54:46.189Z,5.57
2023-03-28T10:57:40.845Z,7.13
2023-03-28T11:00:23.121Z,5.90
2023-03-28T11:03:17.994Z,4.47
2023-03-28T11:06:07.931Z,7.70
2023-03-28T11:08:45.851Z,4.15
2023-03-28T11:11:44.108Z,4.00
2023-03-28T11:14:34.733Z,7.86
2023-03-28T11:17:22.831Z,4.35
2023-03-28T11:20:24.746Z,4.97
2023-03-28T11:23:29.157Z,6.37
2023-03-28T11:26:08.029Z,6.60
2023-03-28T11:28:59.197Z,8.85
2023-03-28T11:31:32.294Z,3.87
2023-03-28T11:34:11.410Z,5.73
2023-03-28T11:36:47.857Z,7.87
2023-03-28T11:39:27.645Z,6.90
2023-03-28T11:41:59.862Z,5.60
2023-03-28T11:44:40.081Z,4.93
2023-03-28T11:47:19.605Z,2.47
2023-03-28T11:50:08.934Z,4.90
2023-03-28T11:52:43.486Z,9.90
2023-03-28T11:55:21.693Z,7.63
2023-03-28T11:58:13.606Z,6.23
2023-03-28T12:00:49.133Z,8.70
2023-03-28T12:03:36.020Z,7.50
2023-03-28T12:06:15.104Z,5.87
2023-03-28T12:09:02.998Z,10.73
2023-03-28T12:11:49.249Z,8.30
2023-03-28T12:14:33.984Z,9.30
2023-03-28T12:17:09.749Z,4.83
2023-03-28T12:19:41.567Z,4.60
2023-03-28T12:22:29.444Z,5.25
2023-03-28T12:27:50.963Z,7.75
2023-03-28T12:30:32.378Z,3.72
2023-03-28T12:33:08.858Z,5.78
2023-03-28T12:35:55.481Z,7.53
2023-03-28T12:38:37.188Z,7.65
2023-03-28T12:41:19.921Z,5.90
2023-03-28T12:43:56.009Z,5.37
2023-03-28T12:46:32.748Z,7.10
2023-03-28T12:49:08.183Z,11.20
2023-03-28T12:51:40.799Z,7.50
2023-03-28T12:54:20.488Z,6.06
2023-03-28T12:57:02.290Z,7.87
2023-03-28T13:02:59.337Z,10.55
2023-03-28T13:05:50.219Z,7.33
2023-03-28T13:08:56.072Z,5.90
2023-03-28T13:11:40.589Z,6.77
2023-03-28T13:14:27.390Z,7.60
2023-03-28T13:16:59.525Z,8.80
2023-03-28T13:19:52.869Z,9.40
2023-03-28T13:22:31.561Z,7.45
2023-03-28T13:25:28.112Z,4.65
2023-03-28T13:28:01.014Z,6.30
2023-03-28T13:30:34.080Z,5.83
2023-03-28T13:33:31.107Z,7.77
2023-03-28T13:36:04.161Z,7.87
2023-03-28T13:38:50.216Z,7.47
2023-03-28T13:41:46.155Z,8.45
2023-03-28T13:44:25.265Z,6.70
2023-03-28T13:46:55.576Z,7.20
2023-03-28T13:49:43.357Z,5.23
2023-03-28T13:52:22.089Z,4.80
2023-03-28T13:54:53.698Z,6.70
2023-03-28T13:57:28.258Z,6.37
2023-03-28T14:00:01.339Z,5.03
2023-03-28T14:02:44.717Z,4.93
2023-03-28T14:05:29.029Z,5.40
2023-03-28T14:08:16.843Z,4.87
2023-03-28T14:10:48.549Z,5.25
2023-03-28T14:13:31.453Z,5.30
2023-03-28T14:16:01.324Z,6.03
2023-03-28T14:18:34.217Z,7.50
2023-03-28T14:21:06.350Z,9.83
2023-03-28T14:23:42.175Z,6.67
2023-03-28T14:26:16.935Z,6.12
2023-03-28T14:28:47.577Z,4.97
2023-03-28T14:31:32.289Z,7.60
2023-03-28T14:34:05.157Z,7.17
2023-03-28T14:36:36.716Z,5.93
2023-03-28T14:39:14.031Z,12.35
2023-03-28T14:41:44.649Z,5.57
2023-03-28T14:44:14.657Z,6.60
2023-03-28T14:46:46.650Z,13.45
2023-03-28T14:49:19.311Z,7.20
2023-03-28T14:51:52.228Z,5.23
2023-03-28T14:57:05.363Z,6.95
2023-03-28T14:59:41.294Z,5.70
2023-03-28T15:04:46.403Z,6.12
2023-03-28T15:07:31.520Z,12.20
2023-03-28T15:10:22.529Z,5.35
2023-03-28T15:13:04.098Z,7.05
2023-03-28T15:15:37.716Z,7.72
2023-03-28T15:18:13.137Z,7.64
2023-03-28T15:20:46.865Z,8.80
2023-03-28T15:23:29.206Z,7.67
2023-03-28T15:26:02.261Z,7.57
2023-03-28T15:28:32.944Z,10.73
2023-03-28T15:31:04.684Z,10.00
2023-03-28T15:33:35.829Z,5.43
2023-03-28T15:36:09.654Z,9.23
2023-03-28T15:38:41.249Z,12.37
2023-03-28T15:41:27.219Z,7.27
2023-03-28T15:44:02.300Z,5.37
2023-03-28T15:46:33.921Z,9.67
2023-03-28T15:49:05.973Z,5.73
2023-03-28T15:51:41.278Z,8.50
2023-03-28T15:54:24.070Z,12.66
2023-03-28T15:56:48.399Z,6.00
2023-03-28T15:59:30.398Z,8.73
2023-03-28T16:02:22.724Z,9.15
2023-03-28T16:05:16.533Z,5.90
2023-03-28T16:07:50.518Z,9.60
2023-03-28T16:10:22.459Z,4.28
2023-03-28T16:12:59.943Z,6.40
2023-03-28T16:15:40.462Z,3.70
2023-03-28T16:18:12.099Z,10.05
2023-03-28T16:20:45.313Z,6.03
2023-03-28T16:23:15.760Z,7.03
2023-03-28T16:25:45.809Z,4.93
2023-03-28T16:28:19.406Z,6.03
2023-03-28T16:30:49.292Z,4.37
2023-03-28T16:33:19.696Z,5.73
2023-03-28T16:35:49.621Z,4.27
2023-03-28T16:38:19.217Z,7.70
2023-03-28T16:40:48.826Z,8.75
2023-03-28T16:43:18.737Z,6.97
2023-03-28T16:45:52.076Z,8.97
2023-03-28T16:48:21.996Z,7.28
2023-03-28T16:50:59.697Z,5.97
2023-03-28T16:53:29.486Z,5.53
2023-03-28T16:55:59.781Z,8.93
2023-03-28T16:58:29.923Z,8.93
2023-03-28T17:01:05.910Z,7.10
2023-03-28T17:03:36.646Z,5.25
2023-03-28T17:06:09.932Z,6.13
2023-03-28T17:08:40.264Z,7.07
2023-03-28T17:11:12.664Z,5.10
2023-03-28T17:13:43.415Z,4.67
2023-03-28T17:16:13.221Z,4.27
2023-03-28T17:18:43.130Z,6.60
2023-03-28T17:21:14.978Z,6.92
2023-03-28T17:23:47.125Z,4.43
2023-03-28T17:26:17.780Z,5.37
2023-03-28T17:28:47.625Z,6.43
2023-03-28T17:31:20.483Z,8.33
2023-03-28T17:33:50.212Z,6.05
2023-03-28T17:36:28.007Z,6.25
2023-03-28T17:39:00.027Z,8.73
2023-03-28T17:41:30.852Z,6.00
2023-03-28T17:44:00.825Z,4.95
2023-03-28T17:46:30.665Z,3.93
2023-03-28T17:49:00.650Z,5.10
2023-03-28T17:51:30.817Z,5.12
2023-03-28T17:54:00.925Z,3.73
2023-03-28T17:56:31.067Z,5.70
2023-03-28T17:59:01.245Z,4.35
2023-03-28T18:01:31.109Z,6.93
2023-03-28T18:04:01.277Z,3.93
2023-03-28T18:06:49.196Z,3.77
2023-03-28T18:09:19.009Z,6.77
2023-03-28T18:11:49.476Z,3.00
2023-03-28T18:14:19.078Z,3.33
2023-03-28T18:16:49.107Z,6.43
2023-03-28T18:19:19.017Z,6.17
2023-03-28T18:21:49.313Z,9.23
2023-03-28T18:24:20.397Z,5.10
2023-03-28T18:26:50.294Z,7.63
2023-03-28T18:29:20.181Z,6.70
2023-03-28T18:31:50.286Z,4.33
2023-03-28T18:34:20.547Z,4.03
2023-03-28T18:36:51.381Z,4.05
2023-03-28T18:39:23.020Z,6.53
2023-03-28T18:41:52.948Z,6.93
2023-03-28T18:44:22.746Z,3.85
2023-03-28T18:46:54.467Z,5.65
2023-03-28T18:49:25.096Z,4.23
2023-03-28T18:51:55.294Z,5.77
2023-03-28T18:54:24.825Z,4.97
2023-03-28T18:56:54.384Z,3.50
2023-03-28T18:59:24.156Z,3.17
2023-03-28T19:01:54.906Z,3.90
2023-03-28T19:04:26.382Z,3.10
2023-03-28T19:06:56.557Z,3.72
2023-03-28T19:09:26.753Z,4.13
2023-03-28T19:11:56.554Z,3.47
2023-03-28T19:14:26.764Z,6.78
2023-03-28T19:16:56.916Z,5.57
2023-03-28T19:19:27.140Z,3.93
2023-03-28T19:21:57.401Z,8.58
2023-03-28T19:24:27.269Z,5.83
2023-03-28T19:26:58.915Z,5.30
2023-03-28T19:29:29.010Z,5.20
2023-03-28T19:31:58.899Z,3.93
2023-03-28T19:34:31.697Z,8.90
2023-03-28T19:37:01.773Z,4.23
2023-03-28T19:39:31.931Z,4.55
2023-03-28T19:42:01.749Z,6.03
2023-03-28T19:44:33.033Z,4.90
2023-03-28T19:47:06.835Z,6.50
2023-03-28T19:49:38.038Z,10.93
2023-03-28T19:52:09.975Z,6.87
2023-03-28T19:54:39.771Z,7.23
2023-03-28T19:57:09.600Z,6.37
2023-03-28T19:59:39.454Z,8.00
2023-03-28T20:02:11.950Z,7.90
2023-03-28T20:04:41.828Z,5.50
2023-03-28T20:07:12.613Z,6.03
2023-03-28T20:09:44.363Z,5.45
2023-03-28T20:12:14.194Z,11.12
2023-03-28T20:14:44.282Z,3.50
2023-03-28T20:17:14.286Z,4.63
2023-03-28T20:19:44.227Z,6.50
2023-03-28T20:22:14.494Z,10.15
2023-03-28T20:24:44.776Z,11.00
2023-03-28T20:27:16.242Z,8.27
2023-03-28T20:29:46.840Z,8.10
2023-03-28T20:32:17.492Z,3.70
2023-03-28T20:34:47.640Z,4.22
2023-03-28T20:37:18.106Z,5.35
2023-03-28T20:39:48.886Z,5.60
2023-03-28T20:42:19.485Z,7.28
2023-03-28T20:44:49.884Z,5.80
2023-03-28T20:47:21.438Z,8.50
2023-03-28T20:49:52.952Z,11.87
2023-03-28T20:52:22.672Z,3.77
2023-03-28T20:54:52.542Z,7.47
2023-03-28T20:57:24.360Z,5.83
2023-03-28T20:59:55.243Z,10.03
2023-03-28T21:02:26.295Z,4.60
2023-03-28T21:04:56.184Z,2.73
2023-03-28T21:07:26.659Z,8.43
2023-03-28T21:09:57.918Z,5.85
2023-03-28T21:12:28.580Z,6.33
2023-03-28T21:14:58.211Z,4.78
2023-03-28T21:17:29.133Z,5.50
2023-03-28T21:19:59.302Z,6.07
2023-03-28T21:22:29.375Z,6.73
2023-03-28T21:24:59.482Z,7.30
2023-03-28T21:27:29.421Z,6.77
2023-03-28T21:30:00.922Z,4.07
2023-03-28T21:32:33.108Z,5.33
2023-03-28T21:35:04.000Z,6.20
2023-03-28T21:37:33.959Z,5.83
2023-03-28T21:40:06.755Z,6.20
2023-03-28T21:42:36.556Z,6.80
2023-03-28T21:45:08.206Z,8.60
2023-03-28T21:47:38.793Z,7.27
2023-03-28T21:50:11.895Z,9.50
2023-03-28T21:52:41.916Z,6.80
2023-03-28T21:55:11.550Z,4.78
2023-03-28T21:57:41.466Z,4.47
2023-03-28T22:00:17.600Z,4.72
2023-03-28T22:02:47.286Z,6.37
2023-03-28T22:05:28.708Z,6.20
2023-03-28T22:07:50.301Z,3.57
2023-03-28T22:10:21.297Z,5.97
2023-03-28T22:12:52.770Z,5.10
2023-03-28T22:15:22.665Z,7.12
2023-03-28T22:17:54.874Z,3.57
2023-03-28T22:20:27.014Z,3.27
2023-03-28T22:22:58.550Z,6.20
2023-03-28T22:25:30.043Z,7.10
2023-03-28T22:27:59.818Z,5.90
2023-03-28T22:30:29.722Z,5.10
2023-03-28T22:32:59.611Z,3.83
2023-03-28T22:35:29.769Z,4.95
2023-03-28T22:38:00.386Z,5.53
2023-03-28T22:40:30.677Z,2.90
2023-03-28T22:43:01.369Z,3.65
2023-03-28T22:45:31.718Z,5.47
2023-03-28T22:48:03.316Z,7.17
2023-03-28T22:50:33.786Z,3.93
2023-03-28T22:53:04.471Z,4.63
2023-03-28T22:55:34.312Z,5.50
2023-03-28T22:58:06.382Z,5.90
2023-03-28T23:00:36.404Z,5.73
2023-03-28T23:03:08.095Z,5.58
2023-03-28T23:05:38.972Z,5.90
2023-03-28T23:08:11.693Z,6.20
2023-03-28T23:10:41.867Z,6.65
2023-03-28T23:13:11.742Z,8.57
2023-03-28T23:15:41.604Z,7.37
2023-03-28T23:18:12.055Z,4.67
2023-03-28T23:20:42.726Z,5.83
2023-03-28T23:23:14.219Z,9.07
2023-03-28T23:25:45.608Z,5.53
2023-03-28T23:28:17.244Z,8.20
2023-03-28T23:30:47.310Z,7.07
2023-03-28T23:33:18.321Z,4.75
2023-03-28T23:35:48.570Z,6.72
2023-03-28T23:38:18.167Z,6.00
2023-03-28T23:40:48.471Z,7.05
2023-03-28T23:43:18.569Z,5.58
2023-03-28T23:45:48.392Z,8.10
2023-03-28T23:48:18.050Z,5.17
2023-03-28T23:50:47.851Z,8.70
2023-03-28T23:53:17.657Z,6.03
2023-03-28T23:55:47.531Z,5.00
2023-03-28T23:58:17.173Z,5.33
